sensor_id;sensor_type;location;lat;lon;timestamp;P1;durP1;ratioP1;P2;durP2;ratioP2
61116;SDS011;47002;50.856;6.580;2022-07-17T00:00:23;0.00;;;0.00;;
61116;SDS011;47002;50.856;6.580;2022-07-17T00:02:51;0.00;;;0.00;;
61116;SDS011;47002;50.856;6.580;2022-07-17T00:05:16;0.00;;;0.00;;
61116;SDS011;47002;50.856;6.580;2022-07-17T00:07:42;0.00;;;0.00;;
61116;SDS011;47002;50.856;6.580;2022-07-17T00:10:08;0.00;;;0.00;;
61116;SDS011;47002;50.856;6.580;2022-07-17T00:12:34;0.00;;;0.00;;
61116;SDS011;47002;50.856;6.580;2022-07-17T00:15:00;0.00;;;0.00;;
61116;SDS011;47002;50.856;6.580;2022-07-17T00:17:26;0.00;;;0.00;;
61116;SDS011;47002;50.856;6.580;2022-07-17T00:19:53;0.00;;;0.00;;
61116;SDS011;47002;50.856;6.580;2022-07-17T00:22:19;0.00;;;0.00;;
61116;SDS011;47002;50.856;6.580;2022-07-17T00:24:44;0.00;;;0.00;;
61116;SDS011;47002;50.856;6.580;2022-07-17T00:27:10;0.00;;;0.00;;
61116;SDS011;47002;50.856;6.580;2022-07-17T00:29:36;0.00;;;0.00;;
61116;SDS011;47002;50.856;6.580;2022-07-17T00:32:01;0.00;;;0.00;;
61116;SDS011;47002;50.856;6.580;2022-07-17T00:34:27;0.00;;;0.00;;
61116;SDS011;47002;50.856;6.580;2022-07-17T00:36:54;0.00;;;0.00;;
61116;SDS011;47002;50.856;6.580;2022-07-17T00:39:20;0.00;;;0.00;;
61116;SDS011;47002;50.856;6.580;2022-07-17T00:41:46;0.00;;;0.00;;
61116;SDS011;47002;50.856;6.580;2022-07-17T00:44:11;0.00;;;0.00;;
61116;SDS011;47002;50.856;6.580;2022-07-17T00:46:37;0.00;;;0.00;;
61116;SDS011;47002;50.856;6.580;2022-07-17T00:49:04;0.00;;;0.00;;
61116;SDS011;47002;50.856;6.580;2022-07-17T00:51:30;0.00;;;0.00;;
61116;SDS011;47002;50.856;6.580;2022-07-17T00:53:59;0.00;;;0.00;;
61116;SDS011;47002;50.856;6.580;2022-07-17T00:56:27;0.00;;;0.00;;
61116;SDS011;47002;50.856;6.580;2022-07-17T00:58:53;0.00;;;0.00;;
61116;SDS011;47002;50.856;6.580;2022-07-17T01:01:19;0.00;;;0.00;;
61116;SDS011;47002;50.856;6.580;2022-07-17T01:03:44;0.00;;;0.00;;
61116;SDS011;47002;50.856;6.580;2022-07-17T01:06:11;0.00;;;0.00;;
61116;SDS011;47002;50.856;6.580;2022-07-17T01:08:36;0.10;;;0.10;;
61116;SDS011;47002;50.856;6.580;2022-07-17T01:11:04;0.00;;;0.00;;
61116;SDS011;47002;50.856;6.580;2022-07-17T01:13:30;0.00;;;0.00;;
61116;SDS011;47002;50.856;6.580;2022-07-17T01:15:56;0.00;;;0.00;;
61116;SDS011;47002;50.856;6.580;2022-07-17T01:18:22;0.00;;;0.00;;
61116;SDS011;47002;50.856;6.580;2022-07-17T01:20:48;0.00;;;0.00;;
61116;SDS011;47002;50.856;6.580;2022-07-17T01:23:17;0.00;;;0.00;;
61116;SDS011;47002;50.856;6.580;2022-07-17T01:25:43;0.00;;;0.00;;
61116;SDS011;47002;50.856;6.580;2022-07-17T01:28:09;0.00;;;0.00;;
61116;SDS011;47002;50.856;6.580;2022-07-17T01:30:35;0.00;;;0.00;;
61116;SDS011;47002;50.856;6.580;2022-07-17T01:33:01;0.00;;;0.00;;
61116;SDS011;47002;50.856;6.580;2022-07-17T01:35:28;0.00;;;0.00;;
61116;SDS011;47002;50.856;6.580;2022-07-17T01:37:54;0.00;;;0.00;;
61116;SDS011;47002;50.856;6.580;2022-07-17T01:40:21;0.00;;;0.00;;
61116;SDS011;47002;50.856;6.580;2022-07-17T01:42:47;0.00;;;0.00;;
61116;SDS011;47002;50.856;6.580;2022-07-17T01:45:14;0.00;;;0.00;;
61116;SDS011;47002;50.856;6.580;2022-07-17T01:47:41;0.00;;;0.00;;
61116;SDS011;47002;50.856;6.580;2022-07-17T01:50:07;0.00;;;0.00;;
61116;SDS011;47002;50.856;6.580;2022-07-17T01:52:35;0.00;;;0.00;;
61116;SDS011;47002;50.856;6.580;2022-07-17T01:55:01;0.00;;;0.00;;
61116;SDS011;47002;50.856;6.580;2022-07-17T01:57:29;0.00;;;0.00;;
61116;SDS011;47002;50.856;6.580;2022-07-17T01:59:54;0.00;;;0.00;;
61116;SDS011;47002;50.856;6.580;2022-07-17T02:02:20;0.00;;;0.00;;
61116;SDS011;47002;50.856;6.580;2022-07-17T02:04:46;0.00;;;0.00;;
61116;SDS011;47002;50.856;6.580;2022-07-17T02:07:11;0.00;;;0.00;;
61116;SDS011;47002;50.856;6.580;2022-07-17T02:09:37;0.00;;;0.00;;
61116;SDS011;47002;50.856;6.580;2022-07-17T02:12:03;0.08;;;0.00;;
61116;SDS011;47002;50.856;6.580;2022-07-17T02:14:31;0.00;;;0.00;;
61116;SDS011;47002;50.856;6.580;2022-07-17T02:16:57;0.00;;;0.00;;
61116;SDS011;47002;50.856;6.580;2022-07-17T02:19:22;0.00;;;0.00;;
61116;SDS011;47002;50.856;6.580;2022-07-17T02:21:48;0.00;;;0.00;;
61116;SDS011;47002;50.856;6.580;2022-07-17T02:24:14;0.00;;;0.00;;
61116;SDS011;47002;50.856;6.580;2022-07-17T02:26:40;0.00;;;0.00;;
61116;SDS011;47002;50.856;6.580;2022-07-17T02:29:05;0.00;;;0.00;;
61116;SDS011;47002;50.856;6.580;2022-07-17T02:31:32;0.05;;;0.05;;
61116;SDS011;47002;50.856;6.580;2022-07-17T02:33:58;0.00;;;0.00;;
61116;SDS011;47002;50.856;6.580;2022-07-17T02:36:24;0.03;;;0.00;;
61116;SDS011;47002;50.856;6.580;2022-07-17T02:38:50;0.00;;;0.00;;
61116;SDS011;47002;50.856;6.580;2022-07-17T02:41:16;0.00;;;0.00;;
61116;SDS011;47002;50.856;6.580;2022-07-17T02:43:41;0.00;;;0.00;;
61116;SDS011;47002;50.856;6.580;2022-07-17T02:46:07;0.00;;;0.00;;
61116;SDS011;47002;50.856;6.580;2022-07-17T02:48:34;0.00;;;0.00;;
61116;SDS011;47002;50.856;6.580;2022-07-17T02:51:00;0.03;;;0.03;;
61116;SDS011;47002;50.856;6.580;2022-07-17T02:53:26;0.00;;;0.00;;
61116;SDS011;47002;50.856;6.580;2022-07-17T02:55:52;0.00;;;0.00;;
61116;SDS011;47002;50.856;6.580;2022-07-17T02:58:18;0.00;;;0.00;;
61116;SDS011;47002;50.856;6.580;2022-07-17T03:00:44;0.00;;;0.00;;
61116;SDS011;47002;50.856;6.580;2022-07-17T03:03:09;0.00;;;0.00;;
61116;SDS011;47002;50.856;6.580;2022-07-17T03:05:36;0.00;;;0.00;;
61116;SDS011;47002;50.856;6.580;2022-07-17T03:08:02;0.00;;;0.00;;
61116;SDS011;47002;50.856;6.580;2022-07-17T03:10:28;0.00;;;0.00;;
61116;SDS011;47002;50.856;6.580;2022-07-17T03:12:54;0.00;;;0.00;;
61116;SDS011;47002;50.856;6.580;2022-07-17T03:15:20;0.00;;;0.00;;
61116;SDS011;47002;50.856;6.580;2022-07-17T03:17:45;0.00;;;0.00;;
61116;SDS011;47002;50.856;6.580;2022-07-17T03:20:11;0.00;;;0.00;;
61116;SDS011;47002;50.856;6.580;2022-07-17T03:22:38;0.00;;;0.00;;
61116;SDS011;47002;50.856;6.580;2022-07-17T03:25:04;0.00;;;0.00;;
61116;SDS011;47002;50.856;6.580;2022-07-17T03:27:31;0.00;;;0.00;;
61116;SDS011;47002;50.856;6.580;2022-07-17T03:29:57;0.08;;;0.03;;
61116;SDS011;47002;50.856;6.580;2022-07-17T03:32:23;0.00;;;0.00;;
61116;SDS011;47002;50.856;6.580;2022-07-17T03:34:49;0.00;;;0.00;;
61116;SDS011;47002;50.856;6.580;2022-07-17T03:37:15;0.00;;;0.00;;
61116;SDS011;47002;50.856;6.580;2022-07-17T03:39:42;0.00;;;0.00;;
61116;SDS011;47002;50.856;6.580;2022-07-17T03:42:07;0.00;;;0.00;;
61116;SDS011;47002;50.856;6.580;2022-07-17T03:44:33;0.00;;;0.00;;
61116;SDS011;47002;50.856;6.580;2022-07-17T03:46:59;0.00;;;0.00;;
61116;SDS011;47002;50.856;6.580;2022-07-17T03:49:25;0.00;;;0.00;;
61116;SDS011;47002;50.856;6.580;2022-07-17T03:51:51;0.10;;;0.10;;
61116;SDS011;47002;50.856;6.580;2022-07-17T03:54:17;0.00;;;0.00;;
61116;SDS011;47002;50.856;6.580;2022-07-17T03:56:44;0.00;;;0.00;;
61116;SDS011;47002;50.856;6.580;2022-07-17T03:59:09;0.00;;;0.00;;
61116;SDS011;47002;50.856;6.580;2022-07-17T04:01:35;0.00;;;0.00;;
61116;SDS011;47002;50.856;6.580;2022-07-17T04:04:01;0.00;;;0.00;;
61116;SDS011;47002;50.856;6.580;2022-07-17T04:06:27;0.00;;;0.00;;
61116;SDS011;47002;50.856;6.580;2022-07-17T04:08:52;0.00;;;0.00;;
61116;SDS011;47002;50.856;6.580;2022-07-17T04:11:18;0.00;;;0.00;;
61116;SDS011;47002;50.856;6.580;2022-07-17T04:13:45;0.00;;;0.00;;
61116;SDS011;47002;50.856;6.580;2022-07-17T04:16:11;0.00;;;0.00;;
61116;SDS011;47002;50.856;6.580;2022-07-17T04:18:36;0.00;;;0.00;;
61116;SDS011;47002;50.856;6.580;2022-07-17T04:21:03;0.00;;;0.00;;
61116;SDS011;47002;50.856;6.580;2022-07-17T04:23:30;0.00;;;0.00;;
61116;SDS011;47002;50.856;6.580;2022-07-17T04:25:56;0.00;;;0.00;;
61116;SDS011;47002;50.856;6.580;2022-07-17T04:28:22;0.00;;;0.00;;
61116;SDS011;47002;50.856;6.580;2022-07-17T04:30:49;0.00;;;0.00;;
61116;SDS011;47002;50.856;6.580;2022-07-17T04:33:15;0.00;;;0.00;;
61116;SDS011;47002;50.856;6.580;2022-07-17T04:35:41;0.00;;;0.00;;
61116;SDS011;47002;50.856;6.580;2022-07-17T04:38:07;0.00;;;0.00;;
61116;SDS011;47002;50.856;6.580;2022-07-17T04:40:34;0.00;;;0.00;;
61116;SDS011;47002;50.856;6.580;2022-07-17T04:43:01;0.00;;;0.00;;
61116;SDS011;47002;50.856;6.580;2022-07-17T04:45:27;0.00;;;0.00;;
61116;SDS011;47002;50.856;6.580;2022-07-17T04:47:54;0.00;;;0.00;;
61116;SDS011;47002;50.856;6.580;2022-07-17T04:50:20;0.00;;;0.00;;
61116;SDS011;47002;50.856;6.580;2022-07-17T04:52:46;0.00;;;0.00;;
61116;SDS011;47002;50.856;6.580;2022-07-17T04:55:12;0.00;;;0.00;;
61116;SDS011;47002;50.856;6.580;2022-07-17T04:57:38;0.00;;;0.00;;
61116;SDS011;47002;50.856;6.580;2022-07-17T05:00:05;0.00;;;0.00;;
61116;SDS011;47002;50.856;6.580;2022-07-17T05:02:32;0.00;;;0.00;;
61116;SDS011;47002;50.856;6.580;2022-07-17T05:05:00;0.00;;;0.00;;
61116;SDS011;47002;50.856;6.580;2022-07-17T05:07:26;0.00;;;0.00;;
61116;SDS011;47002;50.856;6.580;2022-07-17T05:09:52;0.00;;;0.00;;
61116;SDS011;47002;50.856;6.580;2022-07-17T05:12:17;0.00;;;0.00;;
61116;SDS011;47002;50.856;6.580;2022-07-17T05:14:43;0.00;;;0.00;;
61116;SDS011;47002;50.856;6.580;2022-07-17T05:17:09;0.00;;;0.00;;
61116;SDS011;47002;50.856;6.580;2022-07-17T05:19:35;0.00;;;0.00;;
61116;SDS011;47002;50.856;6.580;2022-07-17T05:22:02;0.00;;;0.00;;
61116;SDS011;47002;50.856;6.580;2022-07-17T05:24:29;0.00;;;0.00;;
61116;SDS011;47002;50.856;6.580;2022-07-17T05:26:54;0.00;;;0.00;;
61116;SDS011;47002;50.856;6.580;2022-07-17T05:29:20;0.00;;;0.00;;
61116;SDS011;47002;50.856;6.580;2022-07-17T05:31:46;0.00;;;0.00;;
61116;SDS011;47002;50.856;6.580;2022-07-17T05:34:12;0.00;;;0.00;;
61116;SDS011;47002;50.856;6.580;2022-07-17T05:36:38;0.00;;;0.00;;
61116;SDS011;47002;50.856;6.580;2022-07-17T05:39:05;0.00;;;0.00;;
61116;SDS011;47002;50.856;6.580;2022-07-17T05:41:31;0.00;;;0.00;;
61116;SDS011;47002;50.856;6.580;2022-07-17T05:43:57;0.00;;;0.00;;
61116;SDS011;47002;50.856;6.580;2022-07-17T05:46:22;0.00;;;0.00;;
61116;SDS011;47002;50.856;6.580;2022-07-17T05:48:48;0.00;;;0.00;;
61116;SDS011;47002;50.856;6.580;2022-07-17T05:51:14;0.00;;;0.00;;
61116;SDS011;47002;50.856;6.580;2022-07-17T05:53:39;0.00;;;0.00;;
61116;SDS011;47002;50.856;6.580;2022-07-17T05:56:07;0.00;;;0.00;;
61116;SDS011;47002;50.856;6.580;2022-07-17T05:58:32;0.00;;;0.00;;
61116;SDS011;47002;50.856;6.580;2022-07-17T06:00:58;0.00;;;0.00;;
61116;SDS011;47002;50.856;6.580;2022-07-17T06:03:24;0.00;;;0.00;;
61116;SDS011;47002;50.856;6.580;2022-07-17T06:05:49;0.00;;;0.00;;
61116;SDS011;47002;50.856;6.580;2022-07-17T06:08:15;0.00;;;0.00;;
61116;SDS011;47002;50.856;6.580;2022-07-17T06:10:41;0.00;;;0.00;;
61116;SDS011;47002;50.856;6.580;2022-07-17T06:13:08;0.00;;;0.00;;
61116;SDS011;47002;50.856;6.580;2022-07-17T06:15:33;0.00;;;0.00;;
61116;SDS011;47002;50.856;6.580;2022-07-17T06:17:59;0.00;;;0.00;;
61116;SDS011;47002;50.856;6.580;2022-07-17T06:20:25;0.00;;;0.00;;
61116;SDS011;47002;50.856;6.580;2022-07-17T06:22:51;0.00;;;0.00;;
61116;SDS011;47002;50.856;6.580;2022-07-17T06:25:17;0.00;;;0.00;;
61116;SDS011;47002;50.856;6.580;2022-07-17T06:27:43;0.00;;;0.00;;
61116;SDS011;47002;50.856;6.580;2022-07-17T06:30:11;0.00;;;0.00;;
61116;SDS011;47002;50.856;6.580;2022-07-17T06:32:39;0.00;;;0.00;;
61116;SDS011;47002;50.856;6.580;2022-07-17T06:35:05;0.00;;;0.00;;
61116;SDS011;47002;50.856;6.580;2022-07-17T06:37:32;0.00;;;0.00;;
61116;SDS011;47002;50.856;6.580;2022-07-17T06:39:58;0.00;;;0.00;;
61116;SDS011;47002;50.856;6.580;2022-07-17T06:42:24;0.00;;;0.00;;
61116;SDS011;47002;50.856;6.580;2022-07-17T06:44:50;0.00;;;0.00;;
61116;SDS011;47002;50.856;6.580;2022-07-17T06:47:17;0.00;;;0.00;;
61116;SDS011;47002;50.856;6.580;2022-07-17T06:49:42;0.00;;;0.00;;
61116;SDS011;47002;50.856;6.580;2022-07-17T06:52:08;0.00;;;0.00;;
61116;SDS011;47002;50.856;6.580;2022-07-17T06:54:34;0.00;;;0.00;;
61116;SDS011;47002;50.856;6.580;2022-07-17T06:57:00;0.00;;;0.00;;
61116;SDS011;47002;50.856;6.580;2022-07-17T06:59:26;0.00;;;0.00;;
61116;SDS011;47002;50.856;6.580;2022-07-17T07:01:52;0.00;;;0.00;;
61116;SDS011;47002;50.856;6.580;2022-07-17T07:04:19;0.00;;;0.00;;
61116;SDS011;47002;50.856;6.580;2022-07-17T07:06:45;0.00;;;0.00;;
61116;SDS011;47002;50.856;6.580;2022-07-17T07:09:10;0.00;;;0.00;;
61116;SDS011;47002;50.856;6.580;2022-07-17T07:11:36;0.00;;;0.00;;
61116;SDS011;47002;50.856;6.580;2022-07-17T07:14:02;0.00;;;0.00;;
61116;SDS011;47002;50.856;6.580;2022-07-17T07:16:28;0.00;;;0.00;;
61116;SDS011;47002;50.856;6.580;2022-07-17T07:18:53;0.00;;;0.00;;
61116;SDS011;47002;50.856;6.580;2022-07-17T07:21:20;0.00;;;0.00;;
61116;SDS011;47002;50.856;6.580;2022-07-17T07:23:46;0.00;;;0.00;;
61116;SDS011;47002;50.856;6.580;2022-07-17T07:26:12;0.00;;;0.00;;
61116;SDS011;47002;50.856;6.580;2022-07-17T07:28:37;0.00;;;0.00;;
61116;SDS011;47002;50.856;6.580;2022-07-17T07:31:03;0.00;;;0.00;;
61116;SDS011;47002;50.856;6.580;2022-07-17T07:33:29;0.00;;;0.00;;
61116;SDS011;47002;50.856;6.580;2022-07-17T07:35:54;0.00;;;0.00;;
61116;SDS011;47002;50.856;6.580;2022-07-17T07:38:21;0.00;;;0.00;;
61116;SDS011;47002;50.856;6.580;2022-07-17T07:40:47;0.00;;;0.00;;
61116;SDS011;47002;50.856;6.580;2022-07-17T07:43:13;0.00;;;0.00;;
61116;SDS011;47002;50.856;6.580;2022-07-17T07:45:38;0.00;;;0.00;;
61116;SDS011;47002;50.856;6.580;2022-07-17T07:48:04;0.00;;;0.00;;
61116;SDS011;47002;50.856;6.580;2022-07-17T07:50:30;0.00;;;0.00;;
61116;SDS011;47002;50.856;6.580;2022-07-17T07:52:56;0.00;;;0.00;;
61116;SDS011;47002;50.856;6.580;2022-07-17T07:55:23;0.00;;;0.00;;
61116;SDS011;47002;50.856;6.580;2022-07-17T07:57:49;0.00;;;0.00;;
61116;SDS011;47002;50.856;6.580;2022-07-17T08:00:15;0.00;;;0.00;;
61116;SDS011;47002;50.856;6.580;2022-07-17T08:02:42;0.00;;;0.00;;
61116;SDS011;47002;50.856;6.580;2022-07-17T08:05:07;0.00;;;0.00;;
61116;SDS011;47002;50.856;6.580;2022-07-17T08:07:34;0.00;;;0.00;;
61116;SDS011;47002;50.856;6.580;2022-07-17T08:10:00;0.00;;;0.00;;
61116;SDS011;47002;50.856;6.580;2022-07-17T08:12:28;0.00;;;0.00;;
61116;SDS011;47002;50.856;6.580;2022-07-17T08:14:54;0.00;;;0.00;;
61116;SDS011;47002;50.856;6.580;2022-07-17T08:17:19;0.00;;;0.00;;
61116;SDS011;47002;50.856;6.580;2022-07-17T08:19:45;0.00;;;0.00;;
61116;SDS011;47002;50.856;6.580;2022-07-17T08:22:11;0.00;;;0.00;;
61116;SDS011;47002;50.856;6.580;2022-07-17T08:24:37;0.00;;;0.00;;
61116;SDS011;47002;50.856;6.580;2022-07-17T08:27:03;0.00;;;0.00;;
61116;SDS011;47002;50.856;6.580;2022-07-17T08:29:30;0.00;;;0.00;;
61116;SDS011;47002;50.856;6.580;2022-07-17T08:31:56;0.00;;;0.00;;
61116;SDS011;47002;50.856;6.580;2022-07-17T08:34:21;0.00;;;0.00;;
61116;SDS011;47002;50.856;6.580;2022-07-17T08:36:47;0.00;;;0.00;;
61116;SDS011;47002;50.856;6.580;2022-07-17T08:39:13;0.00;;;0.00;;
61116;SDS011;47002;50.856;6.580;2022-07-17T08:41:39;0.00;;;0.00;;
61116;SDS011;47002;50.856;6.580;2022-07-17T08:44:05;0.00;;;0.00;;
61116;SDS011;47002;50.856;6.580;2022-07-17T08:46:33;0.00;;;0.00;;
61116;SDS011;47002;50.856;6.580;2022-07-17T08:49:01;0.00;;;0.00;;
61116;SDS011;47002;50.856;6.580;2022-07-17T08:51:28;0.00;;;0.00;;
61116;SDS011;47002;50.856;6.580;2022-07-17T08:53:55;0.00;;;0.00;;
61116;SDS011;47002;50.856;6.580;2022-07-17T08:56:21;0.00;;;0.00;;
61116;SDS011;47002;50.856;6.580;2022-07-17T08:58:47;0.00;;;0.00;;
61116;SDS011;47002;50.856;6.580;2022-07-17T09:01:14;0.00;;;0.00;;
61116;SDS011;47002;50.856;6.580;2022-07-17T09:03:52;0.00;;;0.00;;
61116;SDS011;47002;50.856;6.580;2022-07-17T09:06:19;0.00;;;0.00;;
61116;SDS011;47002;50.856;6.580;2022-07-17T09:08:45;0.00;;;0.00;;
61116;SDS011;47002;50.856;6.580;2022-07-17T09:11:11;0.00;;;0.00;;
61116;SDS011;47002;50.856;6.580;2022-07-17T09:13:37;0.00;;;0.00;;
61116;SDS011;47002;50.856;6.580;2022-07-17T09:16:08;0.00;;;0.00;;
61116;SDS011;47002;50.856;6.580;2022-07-17T09:18:43;0.00;;;0.00;;
61116;SDS011;47002;50.856;6.580;2022-07-17T09:21:16;0.00;;;0.00;;
61116;SDS011;47002;50.856;6.580;2022-07-17T09:23:42;0.00;;;0.00;;
61116;SDS011;47002;50.856;6.580;2022-07-17T09:26:08;0.00;;;0.00;;
61116;SDS011;47002;50.856;6.580;2022-07-17T09:28:43;0.00;;;0.00;;
61116;SDS011;47002;50.856;6.580;2022-07-17T09:31:09;0.00;;;0.00;;
61116;SDS011;47002;50.856;6.580;2022-07-17T09:33:35;0.00;;;0.00;;
61116;SDS011;47002;50.856;6.580;2022-07-17T09:36:07;0.00;;;0.00;;
61116;SDS011;47002;50.856;6.580;2022-07-17T09:38:35;0.00;;;0.00;;
61116;SDS011;47002;50.856;6.580;2022-07-17T09:41:06;0.00;;;0.00;;
61116;SDS011;47002;50.856;6.580;2022-07-17T09:43:40;0.00;;;0.00;;
61116;SDS011;47002;50.856;6.580;2022-07-17T09:46:08;0.00;;;0.00;;
61116;SDS011;47002;50.856;6.580;2022-07-17T09:48:33;0.00;;;0.00;;
61116;SDS011;47002;50.856;6.580;2022-07-17T09:51:04;0.00;;;0.00;;
61116;SDS011;47002;50.856;6.580;2022-07-17T09:53:33;0.00;;;0.00;;
61116;SDS011;47002;50.856;6.580;2022-07-17T09:56:02;0.00;;;0.00;;
61116;SDS011;47002;50.856;6.580;2022-07-17T09:58:28;0.00;;;0.00;;
61116;SDS011;47002;50.856;6.580;2022-07-17T10:00:57;0.00;;;0.00;;
61116;SDS011;47002;50.856;6.580;2022-07-17T10:03:23;0.00;;;0.00;;
61116;SDS011;47002;50.856;6.580;2022-07-17T10:05:50;0.10;;;0.10;;
61116;SDS011;47002;50.856;6.580;2022-07-17T10:08:18;0.10;;;0.10;;
61116;SDS011;47002;50.856;6.580;2022-07-17T10:10:44;0.05;;;0.05;;
61116;SDS011;47002;50.856;6.580;2022-07-17T10:13:10;0.00;;;0.00;;
61116;SDS011;47002;50.856;6.580;2022-07-17T10:15:38;0.10;;;0.10;;
61116;SDS011;47002;50.856;6.580;2022-07-17T10:18:04;0.10;;;0.10;;
61116;SDS011;47002;50.856;6.580;2022-07-17T10:20:30;0.10;;;0.10;;
61116;SDS011;47002;50.856;6.580;2022-07-17T10:22:56;0.10;;;0.10;;
61116;SDS011;47002;50.856;6.580;2022-07-17T10:25:24;0.10;;;0.10;;
61116;SDS011;47002;50.856;6.580;2022-07-17T10:27:51;0.08;;;0.08;;
61116;SDS011;47002;50.856;6.580;2022-07-17T10:30:23;0.10;;;0.10;;
61116;SDS011;47002;50.856;6.580;2022-07-17T10:32:50;0.10;;;0.10;;
61116;SDS011;47002;50.856;6.580;2022-07-17T10:35:17;0.08;;;0.08;;
61116;SDS011;47002;50.856;6.580;2022-07-17T10:37:43;0.10;;;0.10;;
61116;SDS011;47002;50.856;6.580;2022-07-17T10:40:10;0.10;;;0.10;;
61116;SDS011;47002;50.856;6.580;2022-07-17T10:42:42;0.10;;;0.10;;
61116;SDS011;47002;50.856;6.580;2022-07-17T10:45:10;0.10;;;0.10;;
61116;SDS011;47002;50.856;6.580;2022-07-17T10:47:44;0.10;;;0.10;;
61116;SDS011;47002;50.856;6.580;2022-07-17T10:50:11;0.10;;;0.10;;
61116;SDS011;47002;50.856;6.580;2022-07-17T10:52:37;0.10;;;0.10;;
61116;SDS011;47002;50.856;6.580;2022-07-17T10:55:03;0.10;;;0.10;;
61116;SDS011;47002;50.856;6.580;2022-07-17T10:57:30;0.10;;;0.10;;
61116;SDS011;47002;50.856;6.580;2022-07-17T10:59:57;0.10;;;0.10;;
61116;SDS011;47002;50.856;6.580;2022-07-17T11:02:27;0.10;;;0.10;;
61116;SDS011;47002;50.856;6.580;2022-07-17T11:04:53;0.10;;;0.10;;
61116;SDS011;47002;50.856;6.580;2022-07-17T11:07:19;0.10;;;0.10;;
61116;SDS011;47002;50.856;6.580;2022-07-17T11:09:46;0.10;;;0.10;;
61116;SDS011;47002;50.856;6.580;2022-07-17T11:12:12;0.10;;;0.10;;
61116;SDS011;47002;50.856;6.580;2022-07-17T11:14:38;0.10;;;0.10;;
61116;SDS011;47002;50.856;6.580;2022-07-17T11:17:05;0.10;;;0.10;;
61116;SDS011;47002;50.856;6.580;2022-07-17T11:19:31;0.10;;;0.10;;
61116;SDS011;47002;50.856;6.580;2022-07-17T11:21:59;0.10;;;0.10;;
61116;SDS011;47002;50.856;6.580;2022-07-17T11:24:34;0.10;;;0.10;;
61116;SDS011;47002;50.856;6.580;2022-07-17T11:27:00;0.10;;;0.10;;
61116;SDS011;47002;50.856;6.580;2022-07-17T11:29:26;0.10;;;0.10;;
61116;SDS011;47002;50.856;6.580;2022-07-17T11:31:54;0.10;;;0.10;;
61116;SDS011;47002;50.856;6.580;2022-07-17T11:34:24;0.10;;;0.10;;
61116;SDS011;47002;50.856;6.580;2022-07-17T11:36:50;0.10;;;0.10;;
61116;SDS011;47002;50.856;6.580;2022-07-17T11:39:23;0.10;;;0.10;;
61116;SDS011;47002;50.856;6.580;2022-07-17T11:41:50;0.10;;;0.10;;
61116;SDS011;47002;50.856;6.580;2022-07-17T11:44:18;0.10;;;0.10;;
61116;SDS011;47002;50.856;6.580;2022-07-17T11:46:46;0.10;;;0.10;;
61116;SDS011;47002;50.856;6.580;2022-07-17T11:49:24;0.10;;;0.10;;
61116;SDS011;47002;50.856;6.580;2022-07-17T11:51:50;0.10;;;0.10;;
61116;SDS011;47002;50.856;6.580;2022-07-17T11:54:16;0.10;;;0.10;;
61116;SDS011;47002;50.856;6.580;2022-07-17T11:56:43;0.10;;;0.10;;
61116;SDS011;47002;50.856;6.580;2022-07-17T11:59:23;0.10;;;0.10;;
61116;SDS011;47002;50.856;6.580;2022-07-17T12:01:49;0.10;;;0.10;;
61116;SDS011;47002;50.856;6.580;2022-07-17T12:04:15;0.10;;;0.10;;
61116;SDS011;47002;50.856;6.580;2022-07-17T12:06:42;0.20;;;0.20;;
61116;SDS011;47002;50.856;6.580;2022-07-17T12:09:08;0.10;;;0.10;;
61116;SDS011;47002;50.856;6.580;2022-07-17T12:11:44;0.10;;;0.10;;
61116;SDS011;47002;50.856;6.580;2022-07-17T12:14:11;0.10;;;0.10;;
61116;SDS011;47002;50.856;6.580;2022-07-17T12:16:36;0.10;;;0.10;;
61116;SDS011;47002;50.856;6.580;2022-07-17T12:19:05;0.10;;;0.10;;
61116;SDS011;47002;50.856;6.580;2022-07-17T12:21:32;0.10;;;0.10;;
61116;SDS011;47002;50.856;6.580;2022-07-17T12:24:17;0.10;;;0.10;;
61116;SDS011;47002;50.856;6.580;2022-07-17T12:26:44;0.10;;;0.10;;
61116;SDS011;47002;50.856;6.580;2022-07-17T12:29:09;0.10;;;0.10;;
61116;SDS011;47002;50.856;6.580;2022-07-17T12:31:35;0.10;;;0.10;;
61116;SDS011;47002;50.856;6.580;2022-07-17T12:34:01;0.10;;;0.10;;
61116;SDS011;47002;50.856;6.580;2022-07-17T12:36:27;0.20;;;0.20;;
61116;SDS011;47002;50.856;6.580;2022-07-17T12:38:52;0.10;;;0.10;;
61116;SDS011;47002;50.856;6.580;2022-07-17T12:41:19;0.10;;;0.10;;
61116;SDS011;47002;50.856;6.580;2022-07-17T12:43:45;0.10;;;0.10;;
61116;SDS011;47002;50.856;6.580;2022-07-17T12:46:11;0.20;;;0.20;;
61116;SDS011;47002;50.856;6.580;2022-07-17T12:48:37;0.20;;;0.20;;
61116;SDS011;47002;50.856;6.580;2022-07-17T12:51:03;0.20;;;0.20;;
61116;SDS011;47002;50.856;6.580;2022-07-17T12:53:28;0.20;;;0.20;;
61116;SDS011;47002;50.856;6.580;2022-07-17T12:55:54;0.20;;;0.20;;
61116;SDS011;47002;50.856;6.580;2022-07-17T12:58:21;0.20;;;0.20;;
61116;SDS011;47002;50.856;6.580;2022-07-17T13:00:47;0.20;;;0.20;;
61116;SDS011;47002;50.856;6.580;2022-07-17T13:03:13;0.20;;;0.20;;
61116;SDS011;47002;50.856;6.580;2022-07-17T13:05:38;0.20;;;0.20;;
61116;SDS011;47002;50.856;6.580;2022-07-17T13:08:04;0.20;;;0.20;;
61116;SDS011;47002;50.856;6.580;2022-07-17T13:10:30;0.20;;;0.20;;
61116;SDS011;47002;50.856;6.580;2022-07-17T13:12:58;0.20;;;0.20;;
61116;SDS011;47002;50.856;6.580;2022-07-17T13:15:25;0.20;;;0.20;;
61116;SDS011;47002;50.856;6.580;2022-07-17T13:17:51;0.20;;;0.20;;
61116;SDS011;47002;50.856;6.580;2022-07-17T13:20:17;0.30;;;0.30;;
61116;SDS011;47002;50.856;6.580;2022-07-17T13:22:43;0.30;;;0.30;;
61116;SDS011;47002;50.856;6.580;2022-07-17T13:25:08;0.30;;;0.30;;
61116;SDS011;47002;50.856;6.580;2022-07-17T13:27:34;0.30;;;0.30;;
61116;SDS011;47002;50.856;6.580;2022-07-17T13:30:00;0.30;;;0.30;;
61116;SDS011;47002;50.856;6.580;2022-07-17T13:32:27;0.30;;;0.30;;
61116;SDS011;47002;50.856;6.580;2022-07-17T13:34:53;0.35;;;0.35;;
61116;SDS011;47002;50.856;6.580;2022-07-17T13:37:19;0.35;;;0.35;;
61116;SDS011;47002;50.856;6.580;2022-07-17T13:39:44;0.40;;;0.40;;
61116;SDS011;47002;50.856;6.580;2022-07-17T13:42:10;0.40;;;0.40;;
61116;SDS011;47002;50.856;6.580;2022-07-17T13:44:36;0.47;;;0.47;;
61116;SDS011;47002;50.856;6.580;2022-07-17T13:47:02;0.50;;;0.50;;
61116;SDS011;47002;50.856;6.580;2022-07-17T13:49:29;0.70;;;0.60;;
61116;SDS011;47002;50.856;6.580;2022-07-17T13:51:55;0.70;;;0.70;;
61116;SDS011;47002;50.856;6.580;2022-07-17T13:54:21;0.85;;;0.85;;
61116;SDS011;47002;50.856;6.580;2022-07-17T13:56:46;1.02;;;0.93;;
61116;SDS011;47002;50.856;6.580;2022-07-17T13:59:12;1.20;;;1.10;;
61116;SDS011;47002;50.856;6.580;2022-07-17T14:01:38;1.50;;;1.40;;
61116;SDS011;47002;50.856;6.580;2022-07-17T14:04:04;1.60;;;1.50;;
61116;SDS011;47002;50.856;6.580;2022-07-17T14:06:31;1.90;;;1.80;;
61116;SDS011;47002;50.856;6.580;2022-07-17T14:08:57;2.00;;;1.90;;
61116;SDS011;47002;50.856;6.580;2022-07-17T14:11:22;2.08;;;1.98;;
61116;SDS011;47002;50.856;6.580;2022-07-17T14:13:48;2.30;;;2.20;;
61116;SDS011;47002;50.856;6.580;2022-07-17T14:16:14;2.50;;;2.40;;
61116;SDS011;47002;50.856;6.580;2022-07-17T14:18:39;2.60;;;2.50;;
61116;SDS011;47002;50.856;6.580;2022-07-17T14:21:05;3.22;;;3.03;;
61116;SDS011;47002;50.856;6.580;2022-07-17T14:23:32;4.03;;;3.83;;
61116;SDS011;47002;50.856;6.580;2022-07-17T14:25:58;4.63;;;4.43;;
61116;SDS011;47002;50.856;6.580;2022-07-17T14:28:24;5.70;;;5.40;;
61116;SDS011;47002;50.856;6.580;2022-07-17T14:30:50;6.50;;;6.20;;
61116;SDS011;47002;50.856;6.580;2022-07-17T14:33:16;6.75;;;6.45;;
61116;SDS011;47002;50.856;6.580;2022-07-17T14:35:42;7.20;;;6.80;;
61116;SDS011;47002;50.856;6.580;2022-07-17T14:38:07;8.20;;;7.80;;
61116;SDS011;47002;50.856;6.580;2022-07-17T14:40:34;9.35;;;8.85;;
61116;SDS011;47002;50.856;6.580;2022-07-17T14:43:00;11.05;;;10.52;;